Wrights, Illinois
Current Conditions -  °F | °C
As of 8:55 AM on Thursday 23 Oct 2014 (Local Time) from KIJX Reporting Station
Clear Clear  
Wind Chill: 50°   Ceiling: Unl
Heat Index: 50°   Visibility: 10mi
Dew Point: 42°   Wind: 7mph
Humidity: 75%   Direction: 160°SSE
Pressure: 30.19"   Gusts: NA
Location:  39.38°N, 90.29°W
Report Text: KIJX 231355Z AUTO 16006KT 10SM CLR 10/06 A3019 RMK AO2 T01000057
Loading
Personal Weather Stations






























Interactive Weather Map
Tropical Storm Tracking
New forecast layout! Learn more

10-Day Weather Forecast

Advertisements
Track Severe Weather on mobile